sensor_id;sensor_type;location;lat;lon;timestamp;temperature;humidity
69503;SHT31;56704;54.242;12.442;2023-03-23T00:01:10;10.24;87.74
69503;SHT31;56704;54.242;12.442;2023-03-23T00:03:38;10.25;88.45
69503;SHT31;56704;54.242;12.442;2023-03-23T00:06:05;10.14;88.99
69503;SHT31;56704;54.242;12.442;2023-03-23T00:08:33;10.11;89.34
69503;SHT31;56704;54.242;12.442;2023-03-23T00:11:03;10.09;90.03
69503;SHT31;56704;54.242;12.442;2023-03-23T00:13:31;10.01;89.96
69503;SHT31;56704;54.242;12.442;2023-03-23T00:15:58;9.97;90.48
69503;SHT31;56704;54.242;12.442;2023-03-23T00:18:25;9.94;90.27
69503;SHT31;56704;54.242;12.442;2023-03-23T00:20:53;9.94;90.65
69503;SHT31;56704;54.242;12.442;2023-03-23T00:23:22;9.94;90.56
69503;SHT31;56704;54.242;12.442;2023-03-23T00:25:50;9.92;90.63
69503;SHT31;56704;54.242;12.442;2023-03-23T00:28:22;9.92;90.94
69503;SHT31;56704;54.242;12.442;2023-03-23T00:30:55;9.83;91.45
69503;SHT31;56704;54.242;12.442;2023-03-23T00:33:23;9.75;91.83
69503;SHT31;56704;54.242;12.442;2023-03-23T00:35:51;9.66;92.43
69503;SHT31;56704;54.242;12.442;2023-03-23T00:38:20;9.63;92.87
69503;SHT31;56704;54.242;12.442;2023-03-23T00:40:46;9.62;93.20
69503;SHT31;56704;54.242;12.442;2023-03-23T00:43:13;9.59;93.29
69503;SHT31;56704;54.242;12.442;2023-03-23T00:45:40;9.62;93.52
69503;SHT31;56704;54.242;12.442;2023-03-23T00:48:08;9.58;93.73
69503;SHT31;56704;54.242;12.442;2023-03-23T00:50:37;9.56;93.96
69503;SHT31;56704;54.242;12.442;2023-03-23T00:53:04;9.53;94.35
69503;SHT31;56704;54.242;12.442;2023-03-23T00:55:30;9.41;96.25
69503;SHT31;56704;54.242;12.442;2023-03-23T00:57:59;9.36;96.86
69503;SHT31;56704;54.242;12.442;2023-03-23T01:00:25;9.38;96.60
69503;SHT31;56704;54.242;12.442;2023-03-23T01:02:53;9.32;96.79
69503;SHT31;56704;54.242;12.442;2023-03-23T01:05:21;9.28;96.81
69503;SHT31;56704;54.242;12.442;2023-03-23T01:07:47;9.25;97.25
69503;SHT31;56704;54.242;12.442;2023-03-23T01:10:14;9.25;97.42
69503;SHT31;56704;54.242;12.442;2023-03-23T01:12:43;9.24;97.33
69503;SHT31;56704;54.242;12.442;2023-03-23T01:15:14;9.22;97.53
69503;SHT31;56704;54.242;12.442;2023-03-23T01:17:41;9.22;97.17
69503;SHT31;56704;54.242;12.442;2023-03-23T01:20:08;9.21;97.31
69503;SHT31;56704;54.242;12.442;2023-03-23T01:22:37;9.21;97.55
69503;SHT31;56704;54.242;12.442;2023-03-23T01:25:05;9.20;97.90
69503;SHT31;56704;54.242;12.442;2023-03-23T01:27:32;9.22;97.79
69503;SHT31;56704;54.242;12.442;2023-03-23T01:29:58;9.20;97.74
69503;SHT31;56704;54.242;12.442;2023-03-23T01:32:25;9.20;97.49
69503;SHT31;56704;54.242;12.442;2023-03-23T01:34:52;9.18;97.47
69503;SHT31;56704;54.242;12.442;2023-03-23T01:37:18;9.17;97.46
69503;SHT31;56704;54.242;12.442;2023-03-23T01:39:52;9.17;97.63
69503;SHT31;56704;54.242;12.442;2023-03-23T01:42:21;9.18;97.90
69503;SHT31;56704;54.242;12.442;2023-03-23T01:45:23;9.17;98.03
69503;SHT31;56704;54.242;12.442;2023-03-23T01:47:54;9.14;98.45
69503;SHT31;56704;54.242;12.442;2023-03-23T01:50:23;9.14;98.28
69503;SHT31;56704;54.242;12.442;2023-03-23T01:52:50;9.15;98.52
69503;SHT31;56704;54.242;12.442;2023-03-23T01:55:21;9.10;98.68
69503;SHT31;56704;54.242;12.442;2023-03-23T01:57:48;9.14;98.88
69503;SHT31;56704;54.242;12.442;2023-03-23T02:00:15;9.12;98.77
69503;SHT31;56704;54.242;12.442;2023-03-23T02:02:43;9.14;98.86
69503;SHT31;56704;54.242;12.442;2023-03-23T02:05:13;9.12;98.80
69503;SHT31;56704;54.242;12.442;2023-03-23T02:07:41;9.10;98.83
69503;SHT31;56704;54.242;12.442;2023-03-23T02:10:09;9.11;98.69
69503;SHT31;56704;54.242;12.442;2023-03-23T02:12:37;9.10;98.79
69503;SHT31;56704;54.242;12.442;2023-03-23T02:15:05;9.08;98.89
69503;SHT31;56704;54.242;12.442;2023-03-23T02:17:39;9.08;98.95
69503;SHT31;56704;54.242;12.442;2023-03-23T02:20:18;9.11;98.91
69503;SHT31;56704;54.242;12.442;2023-03-23T02:25:59;9.10;98.99
69503;SHT31;56704;54.242;12.442;2023-03-23T02:28:50;9.11;99.14
69503;SHT31;56704;54.242;12.442;2023-03-23T02:31:35;9.12;99.07
69503;SHT31;56704;54.242;12.442;2023-03-23T02:34:12;9.12;99.15
69503;SHT31;56704;54.242;12.442;2023-03-23T02:36:46;9.12;99.12
69503;SHT31;56704;54.242;12.442;2023-03-23T02:39:19;9.14;99.05
69503;SHT31;56704;54.242;12.442;2023-03-23T02:41:50;9.15;98.99
69503;SHT31;56704;54.242;12.442;2023-03-23T02:44:19;9.11;99.07
69503;SHT31;56704;54.242;12.442;2023-03-23T02:46:46;9.15;99.19
69503;SHT31;56704;54.242;12.442;2023-03-23T02:49:16;9.25;99.03
69503;SHT31;56704;54.242;12.442;2023-03-23T02:51:46;9.17;98.98
69503;SHT31;56704;54.242;12.442;2023-03-23T02:54:14;9.20;98.95
69503;SHT31;56704;54.242;12.442;2023-03-23T02:56:43;9.15;99.24
69503;SHT31;56704;54.242;12.442;2023-03-23T02:59:10;9.17;99.23
69503;SHT31;56704;54.242;12.442;2023-03-23T03:01:57;9.15;99.33
69503;SHT31;56704;54.242;12.442;2023-03-23T03:04:28;9.20;99.29
69503;SHT31;56704;54.242;12.442;2023-03-23T03:07:07;9.17;99.26
69503;SHT31;56704;54.242;12.442;2023-03-23T03:09:42;9.21;99.29
69503;SHT31;56704;54.242;12.442;2023-03-23T03:12:15;9.18;99.19
69503;SHT31;56704;54.242;12.442;2023-03-23T03:14:48;9.24;98.97
69503;SHT31;56704;54.242;12.442;2023-03-23T03:17:23;9.22;98.95
69503;SHT31;56704;54.242;12.442;2023-03-23T03:19:54;9.22;98.90
69503;SHT31;56704;54.242;12.442;2023-03-23T03:22:21;9.22;99.02
69503;SHT31;56704;54.242;12.442;2023-03-23T03:24:50;9.22;98.84
69503;SHT31;56704;54.242;12.442;2023-03-23T03:27:18;9.21;98.88
69503;SHT31;56704;54.242;12.442;2023-03-23T03:29:51;9.22;98.93
69503;SHT31;56704;54.242;12.442;2023-03-23T03:32:21;9.24;98.97
69503;SHT31;56704;54.242;12.442;2023-03-23T03:34:49;9.22;99.05
69503;SHT31;56704;54.242;12.442;2023-03-23T03:37:19;9.25;98.91
69503;SHT31;56704;54.242;12.442;2023-03-23T03:39:46;9.22;98.89
69503;SHT31;56704;54.242;12.442;2023-03-23T03:42:12;9.20;99.10
69503;SHT31;56704;54.242;12.442;2023-03-23T03:44:39;9.22;99.05
69503;SHT31;56704;54.242;12.442;2023-03-23T03:47:05;9.22;99.10
69503;SHT31;56704;54.242;12.442;2023-03-23T03:49:32;9.27;99.06
69503;SHT31;56704;54.242;12.442;2023-03-23T03:51:59;9.21;99.13
69503;SHT31;56704;54.242;12.442;2023-03-23T03:54:27;9.24;99.04
69503;SHT31;56704;54.242;12.442;2023-03-23T03:56:53;9.25;99.14
69503;SHT31;56704;54.242;12.442;2023-03-23T03:59:23;9.24;98.96
69503;SHT31;56704;54.242;12.442;2023-03-23T04:01:51;9.27;99.05
69503;SHT31;56704;54.242;12.442;2023-03-23T04:04:19;9.24;99.05
69503;SHT31;56704;54.242;12.442;2023-03-23T04:06:47;9.22;99.08
69503;SHT31;56704;54.242;12.442;2023-03-23T04:09:14;9.27;98.94
69503;SHT31;56704;54.242;12.442;2023-03-23T04:11:42;9.27;99.10
69503;SHT31;56704;54.242;12.442;2023-03-23T04:14:09;9.25;99.08
69503;SHT31;56704;54.242;12.442;2023-03-23T04:16:35;9.25;99.14
69503;SHT31;56704;54.242;12.442;2023-03-23T04:19:02;9.22;99.08
69503;SHT31;56704;54.242;12.442;2023-03-23T04:21:29;9.21;99.20
69503;SHT31;56704;54.242;12.442;2023-03-23T04:23:56;9.24;99.12
69503;SHT31;56704;54.242;12.442;2023-03-23T04:26:25;9.25;99.11
69503;SHT31;56704;54.242;12.442;2023-03-23T04:28:53;9.27;99.06
69503;SHT31;56704;54.242;12.442;2023-03-23T04:31:20;9.27;99.22
69503;SHT31;56704;54.242;12.442;2023-03-23T04:33:50;9.21;99.23
69503;SHT31;56704;54.242;12.442;2023-03-23T04:36:18;9.25;99.37
69503;SHT31;56704;54.242;12.442;2023-03-23T04:38:47;9.25;99.68
69503;SHT31;56704;54.242;12.442;2023-03-23T04:41:15;9.24;99.73
69503;SHT31;56704;54.242;12.442;2023-03-23T04:43:41;9.27;99.72
69503;SHT31;56704;54.242;12.442;2023-03-23T04:46:09;9.24;99.75
69503;SHT31;56704;54.242;12.442;2023-03-23T04:48:36;9.24;99.79
69503;SHT31;56704;54.242;12.442;2023-03-23T04:51:05;9.30;99.69
69503;SHT31;56704;54.242;12.442;2023-03-23T04:53:32;9.30;99.77
69503;SHT31;56704;54.242;12.442;2023-03-23T04:55:59;9.31;99.81
69503;SHT31;56704;54.242;12.442;2023-03-23T04:58:26;9.30;99.88
69503;SHT31;56704;54.242;12.442;2023-03-23T05:00:53;9.32;99.87
69503;SHT31;56704;54.242;12.442;2023-03-23T05:03:21;9.30;99.99
69503;SHT31;56704;54.242;12.442;2023-03-23T05:05:47;9.38;99.54
69503;SHT31;56704;54.242;12.442;2023-03-23T05:08:17;9.34;99.74
69503;SHT31;56704;54.242;12.442;2023-03-23T05:10:50;9.34;99.70
69503;SHT31;56704;54.242;12.442;2023-03-23T05:13:17;9.35;99.55
69503;SHT31;56704;54.242;12.442;2023-03-23T05:15:43;9.39;99.54
69503;SHT31;56704;54.242;12.442;2023-03-23T05:18:10;9.39;99.61
69503;SHT31;56704;54.242;12.442;2023-03-23T05:20:38;9.42;99.39
69503;SHT31;56704;54.242;12.442;2023-03-23T05:23:05;9.41;99.54
69503;SHT31;56704;54.242;12.442;2023-03-23T05:25:31;9.42;99.49
69503;SHT31;56704;54.242;12.442;2023-03-23T05:28:01;9.41;99.37
69503;SHT31;56704;54.242;12.442;2023-03-23T05:30:28;9.43;99.30
69503;SHT31;56704;54.242;12.442;2023-03-23T05:32:55;9.45;99.32
69503;SHT31;56704;54.242;12.442;2023-03-23T05:35:21;9.46;99.20
69503;SHT31;56704;54.242;12.442;2023-03-23T05:37:49;9.46;99.28
69503;SHT31;56704;54.242;12.442;2023-03-23T05:40:18;9.48;99.24
69503;SHT31;56704;54.242;12.442;2023-03-23T05:42:45;9.46;99.38
69503;SHT31;56704;54.242;12.442;2023-03-23T05:45:12;9.45;99.30
69503;SHT31;56704;54.242;12.442;2023-03-23T05:47:39;9.49;99.42
69503;SHT31;56704;54.242;12.442;2023-03-23T05:50:07;9.52;99.30
69503;SHT31;56704;54.242;12.442;2023-03-23T05:52:36;9.49;99.37
69503;SHT31;56704;54.242;12.442;2023-03-23T05:55:05;9.52;99.42
69503;SHT31;56704;54.242;12.442;2023-03-23T05:57:33;9.51;99.34
69503;SHT31;56704;54.242;12.442;2023-03-23T06:00:00;9.53;99.40
69503;SHT31;56704;54.242;12.442;2023-03-23T06:02:31;9.56;99.17
69503;SHT31;56704;54.242;12.442;2023-03-23T06:04:57;9.58;99.26
69503;SHT31;56704;54.242;12.442;2023-03-23T06:07:25;9.62;99.16
69503;SHT31;56704;54.242;12.442;2023-03-23T06:09:52;9.63;99.26
69503;SHT31;56704;54.242;12.442;2023-03-23T06:12:20;9.65;99.14
69503;SHT31;56704;54.242;12.442;2023-03-23T06:14:47;9.70;98.74
69503;SHT31;56704;54.242;12.442;2023-03-23T06:17:14;9.70;98.87
69503;SHT31;56704;54.242;12.442;2023-03-23T06:19:41;9.70;98.84
69503;SHT31;56704;54.242;12.442;2023-03-23T06:22:08;9.79;98.81
69503;SHT31;56704;54.242;12.442;2023-03-23T06:24:34;9.78;98.95
69503;SHT31;56704;54.242;12.442;2023-03-23T06:27:01;9.79;98.67
69503;SHT31;56704;54.242;12.442;2023-03-23T06:29:29;9.80;98.69
69503;SHT31;56704;54.242;12.442;2023-03-23T06:31:59;9.80;98.69
69503;SHT31;56704;54.242;12.442;2023-03-23T06:34:27;9.86;98.58
69503;SHT31;56704;54.242;12.442;2023-03-23T06:36:53;9.87;98.47
69503;SHT31;56704;54.242;12.442;2023-03-23T06:39:21;9.94;98.29
69503;SHT31;56704;54.242;12.442;2023-03-23T06:41:48;9.93;98.31
69503;SHT31;56704;54.242;12.442;2023-03-23T06:44:14;9.96;98.31
69503;SHT31;56704;54.242;12.442;2023-03-23T06:46:42;9.97;98.33
69503;SHT31;56704;54.242;12.442;2023-03-23T06:49:09;9.99;98.42
69503;SHT31;56704;54.242;12.442;2023-03-23T06:51:36;10.01;98.03
69503;SHT31;56704;54.242;12.442;2023-03-23T06:54:03;10.03;98.07
69503;SHT31;56704;54.242;12.442;2023-03-23T06:56:30;10.06;98.16
69503;SHT31;56704;54.242;12.442;2023-03-23T06:58:56;10.06;98.12
69503;SHT31;56704;54.242;12.442;2023-03-23T07:01:23;10.10;97.96
69503;SHT31;56704;54.242;12.442;2023-03-23T07:03:51;10.09;98.01
69503;SHT31;56704;54.242;12.442;2023-03-23T07:06:18;10.11;98.16
69503;SHT31;56704;54.242;12.442;2023-03-23T07:08:45;10.13;98.17
69503;SHT31;56704;54.242;12.442;2023-03-23T07:11:11;10.16;97.84
69503;SHT31;56704;54.242;12.442;2023-03-23T07:13:38;10.17;98.33
69503;SHT31;56704;54.242;12.442;2023-03-23T07:16:06;10.24;98.38
69503;SHT31;56704;54.242;12.442;2023-03-23T07:18:33;10.29;98.24
69503;SHT31;56704;54.242;12.442;2023-03-23T07:21:01;10.30;98.02
69503;SHT31;56704;54.242;12.442;2023-03-23T07:23:29;10.36;97.79
69503;SHT31;56704;54.242;12.442;2023-03-23T07:25:56;10.36;97.63
69503;SHT31;56704;54.242;12.442;2023-03-23T07:28:22;10.36;97.88
69503;SHT31;56704;54.242;12.442;2023-03-23T07:30:49;10.38;97.46
69503;SHT31;56704;54.242;12.442;2023-03-23T07:33:15;10.40;97.70
69503;SHT31;56704;54.242;12.442;2023-03-23T07:35:42;10.48;97.45
69503;SHT31;56704;54.242;12.442;2023-03-23T07:38:10;10.50;97.27
69503;SHT31;56704;54.242;12.442;2023-03-23T07:40:37;10.58;97.57
69503;SHT31;56704;54.242;12.442;2023-03-23T07:43:03;10.62;96.92
69503;SHT31;56704;54.242;12.442;2023-03-23T07:45:31;10.65;97.05
69503;SHT31;56704;54.242;12.442;2023-03-23T07:47:57;10.73;97.38
69503;SHT31;56704;54.242;12.442;2023-03-23T07:50:24;10.69;96.84
69503;SHT31;56704;54.242;12.442;2023-03-23T07:52:53;10.72;96.45
69503;SHT31;56704;54.242;12.442;2023-03-23T07:55:22;10.73;96.55
69503;SHT31;56704;54.242;12.442;2023-03-23T07:57:50;10.73;97.13
69503;SHT31;56704;54.242;12.442;2023-03-23T08:00:18;10.85;96.38
69503;SHT31;56704;54.242;12.442;2023-03-23T08:02:46;10.91;95.95
69503;SHT31;56704;54.242;12.442;2023-03-23T08:05:14;10.93;96.19
69503;SHT31;56704;54.242;12.442;2023-03-23T08:07:40;10.98;95.89
69503;SHT31;56704;54.242;12.442;2023-03-23T08:10:08;10.99;95.19
69503;SHT31;56704;54.242;12.442;2023-03-23T08:12:39;11.03;95.25
69503;SHT31;56704;54.242;12.442;2023-03-23T08:15:06;11.09;94.78
69503;SHT31;56704;54.242;12.442;2023-03-23T08:17:34;11.10;95.32
69503;SHT31;56704;54.242;12.442;2023-03-23T08:20:01;11.10;95.24
69503;SHT31;56704;54.242;12.442;2023-03-23T08:22:34;11.08;94.35
69503;SHT31;56704;54.242;12.442;2023-03-23T08:25:01;11.15;94.39
69503;SHT31;56704;54.242;12.442;2023-03-23T08:27:28;11.22;93.48
69503;SHT31;56704;54.242;12.442;2023-03-23T08:29:56;11.27;94.61
69503;SHT31;56704;54.242;12.442;2023-03-23T08:32:23;11.44;94.28
69503;SHT31;56704;54.242;12.442;2023-03-23T08:34:50;11.61;94.18
69503;SHT31;56704;54.242;12.442;2023-03-23T08:37:16;11.67;93.26
69503;SHT31;56704;54.242;12.442;2023-03-23T08:39:43;11.84;93.52
69503;SHT31;56704;54.242;12.442;2023-03-23T08:42:10;12.09;92.43
69503;SHT31;56704;54.242;12.442;2023-03-23T08:44:54;12.19;91.90
69503;SHT31;56704;54.242;12.442;2023-03-23T08:47:31;12.18;90.66
69503;SHT31;56704;54.242;12.442;2023-03-23T08:49:58;12.19;90.71
69503;SHT31;56704;54.242;12.442;2023-03-23T08:52:25;12.32;90.53
69503;SHT31;56704;54.242;12.442;2023-03-23T08:54:51;12.49;90.49
69503;SHT31;56704;54.242;12.442;2023-03-23T08:57:18;12.52;88.85
69503;SHT31;56704;54.242;12.442;2023-03-23T08:59:45;12.39;89.72
69503;SHT31;56704;54.242;12.442;2023-03-23T09:02:12;12.39;89.40
69503;SHT31;56704;54.242;12.442;2023-03-23T09:04:40;12.60;90.22
69503;SHT31;56704;54.242;12.442;2023-03-23T09:07:08;12.64;88.72
69503;SHT31;56704;54.242;12.442;2023-03-23T09:09:36;12.69;89.08
69503;SHT31;56704;54.242;12.442;2023-03-23T09:12:04;12.61;89.85
69503;SHT31;56704;54.242;12.442;2023-03-23T09:14:31;12.76;88.27
69503;SHT31;56704;54.242;12.442;2023-03-23T09:16:58;12.91;87.92
69503;SHT31;56704;54.242;12.442;2023-03-23T09:19:24;13.12;86.81
69503;SHT31;56704;54.242;12.442;2023-03-23T09:21:52;13.25;86.71
69503;SHT31;56704;54.242;12.442;2023-03-23T09:24:19;13.30;86.39
69503;SHT31;56704;54.242;12.442;2023-03-23T09:26:46;13.31;86.06
69503;SHT31;56704;54.242;12.442;2023-03-23T09:29:13;13.10;86.19
69503;SHT31;56704;54.242;12.442;2023-03-23T09:31:40;12.99;85.64
69503;SHT31;56704;54.242;12.442;2023-03-23T09:34:07;12.90;87.17
69503;SHT31;56704;54.242;12.442;2023-03-23T09:36:35;12.96;86.94
69503;SHT31;56704;54.242;12.442;2023-03-23T09:39:05;12.80;87.65
69503;SHT31;56704;54.242;12.442;2023-03-23T09:41:55;12.59;87.23
69503;SHT31;56704;54.242;12.442;2023-03-23T09:44:32;12.59;85.69
69503;SHT31;56704;54.242;12.442;2023-03-23T09:47:04;12.52;87.16
69503;SHT31;56704;54.242;12.442;2023-03-23T09:49:35;12.45;87.24
69503;SHT31;56704;54.242;12.442;2023-03-23T09:52:07;12.43;86.92
69503;SHT31;56704;54.242;12.442;2023-03-23T09:54:38;12.30;88.30
69503;SHT31;56704;54.242;12.442;2023-03-23T09:57:14;12.33;86.55
69503;SHT31;56704;54.242;12.442;2023-03-23T09:59:47;12.17;88.42
69503;SHT31;56704;54.242;12.442;2023-03-23T10:02:18;12.04;89.16
69503;SHT31;56704;54.242;12.442;2023-03-23T10:04:46;11.95;90.20
69503;SHT31;56704;54.242;12.442;2023-03-23T10:07:14;11.85;90.44
69503;SHT31;56704;54.242;12.442;2023-03-23T10:09:45;11.82;90.06
69503;SHT31;56704;54.242;12.442;2023-03-23T10:12:23;11.71;89.57
69503;SHT31;56704;54.242;12.442;2023-03-23T10:15:12;11.56;91.45
69503;SHT31;56704;54.242;12.442;2023-03-23T10:17:45;11.51;91.31
69503;SHT31;56704;54.242;12.442;2023-03-23T10:20:25;11.49;92.30
69503;SHT31;56704;54.242;12.442;2023-03-23T10:22:58;11.46;92.99
69503;SHT31;56704;54.242;12.442;2023-03-23T10:25:29;11.50;91.56
69503;SHT31;56704;54.242;12.442;2023-03-23T10:28:03;11.49;89.98
69503;SHT31;56704;54.242;12.442;2023-03-23T10:30:33;11.41;89.52
69503;SHT31;56704;54.242;12.442;2023-03-23T10:33:03;11.26;90.04
69503;SHT31;56704;54.242;12.442;2023-03-23T10:35:34;11.10;91.10
69503;SHT31;56704;54.242;12.442;2023-03-23T10:38:04;11.06;87.52
69503;SHT31;56704;54.242;12.442;2023-03-23T10:40:35;11.05;87.62
69503;SHT31;56704;54.242;12.442;2023-03-23T10:43:05;11.03;87.62
69503;SHT31;56704;54.242;12.442;2023-03-23T10:45:31;10.99;88.77
69503;SHT31;56704;54.242;12.442;2023-03-23T10:48:07;10.93;90.13
69503;SHT31;56704;54.242;12.442;2023-03-23T10:50:36;11.00;87.73
69503;SHT31;56704;54.242;12.442;2023-03-23T10:53:10;11.16;87.95
69503;SHT31;56704;54.242;12.442;2023-03-23T10:55:40;11.40;89.47
69503;SHT31;56704;54.242;12.442;2023-03-23T10:58:10;11.64;87.98
69503;SHT31;56704;54.242;12.442;2023-03-23T11:00:41;11.77;87.41
69503;SHT31;56704;54.242;12.442;2023-03-23T11:03:23;11.81;85.53
69503;SHT31;56704;54.242;12.442;2023-03-23T11:05:53;11.81;85.83
69503;SHT31;56704;54.242;12.442;2023-03-23T11:08:24;11.85;85.94
69503;SHT31;56704;54.242;12.442;2023-03-23T11:10:54;12.04;86.35
69503;SHT31;56704;54.242;12.442;2023-03-23T11:13:27;11.99;86.52
69503;SHT31;56704;54.242;12.442;2023-03-23T11:15:54;12.02;86.19
69503;SHT31;56704;54.242;12.442;2023-03-23T11:18:22;12.11;83.86
69503;SHT31;56704;54.242;12.442;2023-03-23T11:20:52;12.05;84.34
69503;SHT31;56704;54.242;12.442;2023-03-23T11:23:23;12.01;84.48
69503;SHT31;56704;54.242;12.442;2023-03-23T11:25:57;12.05;82.91
69503;SHT31;56704;54.242;12.442;2023-03-23T11:28:30;12.05;83.50
69503;SHT31;56704;54.242;12.442;2023-03-23T11:30:58;12.43;83.16
69503;SHT31;56704;54.242;12.442;2023-03-23T11:33:29;12.80;83.55
69503;SHT31;56704;54.242;12.442;2023-03-23T11:35:56;12.97;81.02
69503;SHT31;56704;54.242;12.442;2023-03-23T11:38:24;13.45;81.30
69503;SHT31;56704;54.242;12.442;2023-03-23T11:40:53;13.79;78.48
69503;SHT31;56704;54.242;12.442;2023-03-23T11:43:22;14.07;77.11
69503;SHT31;56704;54.242;12.442;2023-03-23T11:45:56;14.34;78.30
69503;SHT31;56704;54.242;12.442;2023-03-23T11:48:28;14.31;76.39
69503;SHT31;56704;54.242;12.442;2023-03-23T11:50:59;14.58;74.92
69503;SHT31;56704;54.242;12.442;2023-03-23T11:53:34;14.79;74.24
69503;SHT31;56704;54.242;12.442;2023-03-23T11:56:11;14.81;74.21
69503;SHT31;56704;54.242;12.442;2023-03-23T11:58:40;15.03;72.65
69503;SHT31;56704;54.242;12.442;2023-03-23T12:01:19;14.99;74.85
69503;SHT31;56704;54.242;12.442;2023-03-23T12:04:03;15.44;73.96
69503;SHT31;56704;54.242;12.442;2023-03-23T12:06:41;15.36;72.59
69503;SHT31;56704;54.242;12.442;2023-03-23T12:09:19;15.10;72.31
69503;SHT31;56704;54.242;12.442;2023-03-23T12:11:57;14.48;72.19
69503;SHT31;56704;54.242;12.442;2023-03-23T12:14:34;13.96;72.58
69503;SHT31;56704;54.242;12.442;2023-03-23T12:17:16;13.61;73.26
69503;SHT31;56704;54.242;12.442;2023-03-23T12:19:53;13.38;73.77
69503;SHT31;56704;54.242;12.442;2023-03-23T12:22:36;13.30;73.63
69503;SHT31;56704;54.242;12.442;2023-03-23T12:25:21;13.24;74.86
69503;SHT31;56704;54.242;12.442;2023-03-23T12:27:55;13.27;74.89
69503;SHT31;56704;54.242;12.442;2023-03-23T12:30:30;13.14;75.99
69503;SHT31;56704;54.242;12.442;2023-03-23T12:33:08;13.21;76.45
69503;SHT31;56704;54.242;12.442;2023-03-23T12:35:48;13.38;76.05
69503;SHT31;56704;54.242;12.442;2023-03-23T12:38:29;13.47;76.46
69503;SHT31;56704;54.242;12.442;2023-03-23T12:41:05;13.44;74.53
69503;SHT31;56704;54.242;12.442;2023-03-23T12:43:38;13.41;74.25
69503;SHT31;56704;54.242;12.442;2023-03-23T12:46:35;13.31;75.99
69503;SHT31;56704;54.242;12.442;2023-03-23T12:49:07;13.25;75.88
69503;SHT31;56704;54.242;12.442;2023-03-23T12:51:39;13.21;77.03
69503;SHT31;56704;54.242;12.442;2023-03-23T12:54:12;13.11;75.33
69503;SHT31;56704;54.242;12.442;2023-03-23T12:56:46;13.06;77.11
69503;SHT31;56704;54.242;12.442;2023-03-23T12:59:19;13.10;75.90
69503;SHT31;56704;54.242;12.442;2023-03-23T13:01:54;13.15;75.30
69503;SHT31;56704;54.242;12.442;2023-03-23T13:04:25;13.11;74.75
69503;SHT31;56704;54.242;12.442;2023-03-23T13:06:54;13.15;75.44
69503;SHT31;56704;54.242;12.442;2023-03-23T13:09:25;13.11;78.07
69503;SHT31;56704;54.242;12.442;2023-03-23T13:11:54;13.25;78.54
69503;SHT31;56704;54.242;12.442;2023-03-23T13:14:31;13.57;76.10
69503;SHT31;56704;54.242;12.442;2023-03-23T13:17:05;13.49;76.88
69503;SHT31;56704;54.242;12.442;2023-03-23T13:19:37;13.63;73.71
69503;SHT31;56704;54.242;12.442;2023-03-23T13:22:09;13.58;75.87
69503;SHT31;56704;54.242;12.442;2023-03-23T13:24:49;13.31;77.00
69503;SHT31;56704;54.242;12.442;2023-03-23T13:27:17;13.30;74.99
69503;SHT31;56704;54.242;12.442;2023-03-23T13:29:44;13.25;77.88
69503;SHT31;56704;54.242;12.442;2023-03-23T13:32:16;13.18;76.85
69503;SHT31;56704;54.242;12.442;2023-03-23T13:34:43;13.22;76.90
69503;SHT31;56704;54.242;12.442;2023-03-23T13:37:20;13.25;77.27
69503;SHT31;56704;54.242;12.442;2023-03-23T13:39:50;13.18;77.51
69503;SHT31;56704;54.242;12.442;2023-03-23T13:42:20;13.17;78.02
69503;SHT31;56704;54.242;12.442;2023-03-23T13:45:06;13.10;77.64
69503;SHT31;56704;54.242;12.442;2023-03-23T13:47:41;13.00;77.18
69503;SHT31;56704;54.242;12.442;2023-03-23T13:50:25;13.00;78.03
69503;SHT31;56704;54.242;12.442;2023-03-23T13:52:56;13.04;77.76
69503;SHT31;56704;54.242;12.442;2023-03-23T13:55:38;13.06;79.74
69503;SHT31;56704;54.242;12.442;2023-03-23T13:58:11;13.11;79.18
69503;SHT31;56704;54.242;12.442;2023-03-23T14:00:47;13.18;76.28
69503;SHT31;56704;54.242;12.442;2023-03-23T14:03:19;13.18;76.72
69503;SHT31;56704;54.242;12.442;2023-03-23T14:05:51;13.20;78.06
69503;SHT31;56704;54.242;12.442;2023-03-23T14:08:38;13.08;77.43
69503;SHT31;56704;54.242;12.442;2023-03-23T14:11:14;13.08;74.08
69503;SHT31;56704;54.242;12.442;2023-03-23T14:13:45;13.06;73.03
69503;SHT31;56704;54.242;12.442;2023-03-23T14:16:17;13.01;76.05
69503;SHT31;56704;54.242;12.442;2023-03-23T14:18:54;13.07;75.62
69503;SHT31;56704;54.242;12.442;2023-03-23T14:21:26;13.18;74.20
69503;SHT31;56704;54.242;12.442;2023-03-23T14:24:00;13.22;74.88
69503;SHT31;56704;54.242;12.442;2023-03-23T14:26:26;13.15;75.04
69503;SHT31;56704;54.242;12.442;2023-03-23T14:28:53;13.17;75.10
69503;SHT31;56704;54.242;12.442;2023-03-23T14:31:22;13.04;76.52
69503;SHT31;56704;54.242;12.442;2023-03-23T14:33:50;13.00;74.90
69503;SHT31;56704;54.242;12.442;2023-03-23T14:36:22;12.96;73.86
69503;SHT31;56704;54.242;12.442;2023-03-23T14:38:56;12.89;73.45
69503;SHT31;56704;54.242;12.442;2023-03-23T14:41:28;12.77;75.57
69503;SHT31;56704;54.242;12.442;2023-03-23T14:43:55;12.76;75.29
69503;SHT31;56704;54.242;12.442;2023-03-23T14:46:24;12.81;73.92
69503;SHT31;56704;54.242;12.442;2023-03-23T14:48:51;12.87;75.13
69503;SHT31;56704;54.242;12.442;2023-03-23T14:51:18;13.42;73.19
69503;SHT31;56704;54.242;12.442;2023-03-23T14:53:47;13.73;72.88
69503;SHT31;56704;54.242;12.442;2023-03-23T14:56:19;13.80;71.10
69503;SHT31;56704;54.242;12.442;2023-03-23T14:58:48;14.02;72.61
69503;SHT31;56704;54.242;12.442;2023-03-23T15:01:18;15.00;67.91
69503;SHT31;56704;54.242;12.442;2023-03-23T15:03:51;15.44;68.22
69503;SHT31;56704;54.242;12.442;2023-03-23T15:06:20;15.13;68.27
69503;SHT31;56704;54.242;12.442;2023-03-23T15:08:50;15.15;70.15
69503;SHT31;56704;54.242;12.442;2023-03-23T15:11:24;14.82;71.17
69503;SHT31;56704;54.242;12.442;2023-03-23T15:13:53;14.54;71.30
69503;SHT31;56704;54.242;12.442;2023-03-23T15:16:24;14.21;73.01
69503;SHT31;56704;54.242;12.442;2023-03-23T15:18:54;14.03;72.99
69503;SHT31;56704;54.242;12.442;2023-03-23T15:21:24;13.83;70.92
69503;SHT31;56704;54.242;12.442;2023-03-23T15:23:54;13.65;73.24
69503;SHT31;56704;54.242;12.442;2023-03-23T15:26:27;13.51;73.40
69503;SHT31;56704;54.242;12.442;2023-03-23T15:29:03;13.41;74.45
69503;SHT31;56704;54.242;12.442;2023-03-23T15:31:30;13.37;71.93
69503;SHT31;56704;54.242;12.442;2023-03-23T15:34:02;13.30;74.46
69503;SHT31;56704;54.242;12.442;2023-03-23T15:36:32;13.27;74.89
69503;SHT31;56704;54.242;12.442;2023-03-23T15:39:02;13.21;75.96
69503;SHT31;56704;54.242;12.442;2023-03-23T15:41:31;13.22;75.24
69503;SHT31;56704;54.242;12.442;2023-03-23T15:44:10;13.61;76.39